createdAt,value
2022-11-22T00:00:51.694Z,6.13
2022-11-22T00:03:19.582Z,5.00
2022-11-22T00:05:47.482Z,6.78
2022-11-22T00:08:15.372Z,5.25
2022-11-22T00:10:43.454Z,5.38
2022-11-22T00:13:11.416Z,5.45
2022-11-22T00:15:39.318Z,5.03
2022-11-22T00:18:07.223Z,5.43
2022-11-22T00:20:35.243Z,5.05
2022-11-22T00:23:03.135Z,5.95
2022-11-22T00:25:31.045Z,5.43
2022-11-22T00:27:58.849Z,6.00
2022-11-22T00:30:26.765Z,5.63
2022-11-22T00:32:54.606Z,6.18
2022-11-22T00:35:22.788Z,4.55
2022-11-22T00:37:50.704Z,5.53
2022-11-22T00:40:18.673Z,5.75
2022-11-22T00:42:46.561Z,5.35
2022-11-22T00:45:14.498Z,5.47
2022-11-22T00:47:44.241Z,5.60
2022-11-22T00:50:13.699Z,5.25
2022-11-22T00:52:41.563Z,5.57
2022-11-22T00:55:09.604Z,4.85
2022-11-22T00:57:37.652Z,4.05
2022-11-22T01:00:07.139Z,5.53
2022-11-22T01:02:35.258Z,5.22
2022-11-22T01:05:03.166Z,5.03
2022-11-22T01:07:31.256Z,5.00
2022-11-22T01:09:59.328Z,5.18
2022-11-22T01:12:27.275Z,4.22
2022-11-22T01:14:55.249Z,5.93
2022-11-22T01:17:23.125Z,4.40
2022-11-22T01:19:51.043Z,4.20
2022-11-22T01:22:18.878Z,4.20
2022-11-22T01:24:47.351Z,4.85
2022-11-22T01:27:15.323Z,4.63
2022-11-22T01:29:43.268Z,4.93
2022-11-22T01:32:11.211Z,5.00
2022-11-22T01:34:39.119Z,4.28
2022-11-22T01:37:06.993Z,3.60
2022-11-22T01:39:34.857Z,5.93
2022-11-22T01:42:02.767Z,4.85
2022-11-22T01:44:32.596Z,4.05
2022-11-22T01:47:14.190Z,4.25
2022-11-22T01:49:55.265Z,4.18
2022-11-22T01:52:27.728Z,3.83
2022-11-22T01:55:08.279Z,4.05
2022-11-22T01:57:39.560Z,4.43
2022-11-22T02:00:08.997Z,4.35
2022-11-22T02:02:50.689Z,3.47
2022-11-22T02:05:21.728Z,3.35
2022-11-22T02:08:09.304Z,3.88
2022-11-22T02:10:42.216Z,2.92
2022-11-22T02:13:11.073Z,3.88
2022-11-22T02:15:39.277Z,3.80
2022-11-22T02:18:07.125Z,3.63
2022-11-22T02:20:35.363Z,3.85
2022-11-22T02:23:21.193Z,4.18
2022-11-22T02:26:00.477Z,4.50
2022-11-22T02:28:33.840Z,4.00
2022-11-22T02:31:01.867Z,4.07
2022-11-22T02:33:29.726Z,3.42
2022-11-22T02:35:57.617Z,4.75
2022-11-22T02:38:30.660Z,4.10
2022-11-22T02:41:10.792Z,4.40
2022-11-22T02:43:43.663Z,3.63
2022-11-22T02:46:16.742Z,4.38
2022-11-22T02:48:45.058Z,4.25
2022-11-22T02:51:16.827Z,5.82
2022-11-22T02:53:46.069Z,4.03
2022-11-22T02:56:14.361Z,3.97
2022-11-22T02:58:43.144Z,4.53
2022-11-22T03:01:12.524Z,3.80
2022-11-22T03:03:40.512Z,4.10
2022-11-22T03:06:08.455Z,4.53
2022-11-22T03:08:36.424Z,5.40
2022-11-22T03:11:04.282Z,4.65
2022-11-22T03:13:32.258Z,4.10
2022-11-22T03:16:00.166Z,4.82
2022-11-22T03:18:28.026Z,4.32
2022-11-22T03:20:55.869Z,3.85
2022-11-22T03:23:23.733Z,4.60
2022-11-22T03:25:51.597Z,4.13
2022-11-22T03:28:23.169Z,4.47
2022-11-22T03:30:51.046Z,4.88
2022-11-22T03:33:18.903Z,4.18
2022-11-22T03:35:46.776Z,3.90
2022-11-22T03:38:14.620Z,4.75
2022-11-22T03:40:46.953Z,4.38
2022-11-22T03:43:14.939Z,4.53
2022-11-22T03:45:46.823Z,5.20
2022-11-22T03:48:15.107Z,4.03
2022-11-22T03:50:43.123Z,4.00
2022-11-22T03:53:11.106Z,4.43
2022-11-22T03:55:39.467Z,3.95
2022-11-22T03:58:07.624Z,3.92
2022-11-22T04:00:35.593Z,3.85
2022-11-22T04:03:03.494Z,4.32
2022-11-22T04:05:31.396Z,3.90
2022-11-22T04:07:59.271Z,4.38
2022-11-22T04:10:27.305Z,4.35
2022-11-22T04:12:59.115Z,4.25
2022-11-22T04:15:27.609Z,4.25
2022-11-22T04:17:55.464Z,4.25
2022-11-22T04:20:49.328Z,4.82
2022-11-22T04:23:19.874Z,3.90
2022-11-22T04:25:50.680Z,4.18
2022-11-22T04:28:40.474Z,4.18
2022-11-22T04:31:31.554Z,4.60
2022-11-22T04:33:59.443Z,4.78
2022-11-22T04:36:27.268Z,3.67
2022-11-22T04:38:55.130Z,3.40
2022-11-22T04:41:23.368Z,3.53
2022-11-22T04:44:09.689Z,3.38
2022-11-22T04:46:38.221Z,3.47
2022-11-22T04:49:06.054Z,4.40
2022-11-22T04:51:52.345Z,4.05
2022-11-22T04:54:21.250Z,3.03
2022-11-22T04:56:49.200Z,3.70
2022-11-22T04:59:17.038Z,3.55
2022-11-22T05:01:44.919Z,3.78
2022-11-22T05:04:12.870Z,3.60
2022-11-22T05:06:41.351Z,2.72
2022-11-22T05:09:09.334Z,3.28
2022-11-22T05:11:37.223Z,2.55
2022-11-22T05:14:05.111Z,2.70
2022-11-22T05:16:32.994Z,3.72
2022-11-22T05:19:00.955Z,2.80
2022-11-22T05:21:29.676Z,3.88
2022-11-22T05:23:57.759Z,3.83
2022-11-22T05:26:26.469Z,3.22
2022-11-22T05:28:54.567Z,3.15
2022-11-22T05:31:23.467Z,2.97
2022-11-22T05:33:53.603Z,3.15
2022-11-22T05:36:22.905Z,3.03
2022-11-22T05:38:51.001Z,3.88
2022-11-22T05:41:19.023Z,3.38
2022-11-22T05:43:46.959Z,2.70
2022-11-22T05:46:25.291Z,2.92
2022-11-22T05:48:56.087Z,2.88
2022-11-22T05:51:33.542Z,3.58
2022-11-22T05:54:03.142Z,3.05
2022-11-22T05:56:31.069Z,3.40
2022-11-22T05:58:59.235Z,3.33
2022-11-22T06:01:27.206Z,3.25
2022-11-22T06:03:55.082Z,2.40
2022-11-22T06:06:23.158Z,3.17
2022-11-22T06:08:51.576Z,3.63
2022-11-22T06:11:23.351Z,2.85
2022-11-22T06:13:54.685Z,3.30
2022-11-22T06:16:22.903Z,3.42
2022-11-22T06:18:51.154Z,2.92
2022-11-22T06:21:25.350Z,4.10
2022-11-22T06:23:56.685Z,4.10
2022-11-22T06:28:53.461Z,3.70
2022-11-22T06:31:24.901Z,3.17
2022-11-22T06:34:01.910Z,3.03
2022-11-22T06:36:34.796Z,3.10
2022-11-22T06:39:03.642Z,3.97
2022-11-22T06:41:37.979Z,3.75
2022-11-22T06:44:07.860Z,2.63
2022-11-22T06:46:36.558Z,3.63
2022-11-22T06:49:04.718Z,3.92
2022-11-22T06:51:34.331Z,3.83
2022-11-22T06:54:02.338Z,3.25
2022-11-22T06:56:41.611Z,3.85
2022-11-22T06:59:10.339Z,3.92
2022-11-22T07:01:38.680Z,2.97
2022-11-22T07:04:06.889Z,2.90
2022-11-22T07:06:38.397Z,3.55
2022-11-22T07:09:11.311Z,3.25
2022-11-22T07:11:40.754Z,3.10
2022-11-22T07:14:09.566Z,3.65
2022-11-22T07:16:39.329Z,2.42
2022-11-22T07:19:07.800Z,2.88
2022-11-22T07:21:37.355Z,2.50
2022-11-22T07:24:06.710Z,2.70
2022-11-22T07:26:34.868Z,3.08
2022-11-22T07:29:03.101Z,2.75
2022-11-22T07:31:30.997Z,3.00
2022-11-22T07:33:59.208Z,2.80
2022-11-22T07:36:29.491Z,2.60
2022-11-22T07:38:57.654Z,2.40
2022-11-22T07:41:25.652Z,2.72
2022-11-22T07:43:53.988Z,2.00
2022-11-22T07:46:31.020Z,2.38
2022-11-22T07:48:59.893Z,2.75
2022-11-22T07:51:28.152Z,2.67
2022-11-22T07:53:56.930Z,2.65
2022-11-22T07:56:25.059Z,2.85
2022-11-22T07:58:53.189Z,3.00
2022-11-22T08:01:21.762Z,2.42
2022-11-22T08:03:49.733Z,2.08
2022-11-22T08:06:17.674Z,1.80
2022-11-22T08:08:45.572Z,1.90
2022-11-22T08:11:13.606Z,2.40
2022-11-22T08:13:41.584Z,2.50
2022-11-22T08:16:14.902Z,2.30
2022-11-22T08:18:47.885Z,2.38
2022-11-22T08:21:17.513Z,2.85
2022-11-22T08:23:46.562Z,2.15
2022-11-22T08:26:17.134Z,2.33
2022-11-22T08:28:45.474Z,2.05
2022-11-22T08:31:16.592Z,2.47
2022-11-22T08:36:12.181Z,1.88
2022-11-22T08:38:40.083Z,2.15
2022-11-22T08:41:07.976Z,2.05
2022-11-22T08:43:36.247Z,2.25
2022-11-22T08:46:04.532Z,1.90
2022-11-22T08:48:35.408Z,2.58
2022-11-22T08:51:10.169Z,1.77
2022-11-22T08:53:42.790Z,2.53
2022-11-22T08:56:16.131Z,2.50
2022-11-22T08:58:44.297Z,2.33
2022-11-22T09:01:16.026Z,2.03
2022-11-22T09:03:44.731Z,1.90
2022-11-22T09:09:30.535Z,1.80
2022-11-22T09:11:58.289Z,2.10
2022-11-22T09:14:26.256Z,2.20
2022-11-22T09:16:54.164Z,2.08
2022-11-22T09:19:22.116Z,2.03
2022-11-22T09:21:51.070Z,1.73
2022-11-22T09:24:18.941Z,1.95
2022-11-22T09:26:46.811Z,1.90
2022-11-22T09:29:15.805Z,2.47
2022-11-22T09:31:43.775Z,2.05
2022-11-22T09:34:11.649Z,1.98
2022-11-22T09:36:39.612Z,1.70
2022-11-22T09:39:08.435Z,1.70
2022-11-22T09:41:59.345Z,2.45
2022-11-22T09:44:27.163Z,2.30
2022-11-22T09:47:28.904Z,1.80
2022-11-22T09:50:30.322Z,1.80
2022-11-22T09:53:12.267Z,1.98
2022-11-22T09:55:48.894Z,1.95
2022-11-22T09:58:25.857Z,1.40
2022-11-22T10:00:57.630Z,1.48
2022-11-22T10:03:54.769Z,1.55
2022-11-22T10:06:38.313Z,1.75
2022-11-22T10:09:41.426Z,1.30
2022-11-22T10:12:20.327Z,1.38
2022-11-22T10:14:50.969Z,1.67
2022-11-22T10:17:48.543Z,1.73
2022-11-22T10:20:29.541Z,1.40
2022-11-22T10:22:58.682Z,1.77
2022-11-22T10:26:05.521Z,1.55
2022-11-22T10:28:40.339Z,2.15
2022-11-22T10:31:31.784Z,1.38
2022-11-22T10:34:25.190Z,1.65
2022-11-22T10:37:28.575Z,1.98
2022-11-22T10:40:26.870Z,2.40
2022-11-22T10:43:24.901Z,1.63
2022-11-22T10:46:18.068Z,1.20
2022-11-22T10:49:22.237Z,1.35
2022-11-22T10:52:12.218Z,1.08
2022-11-22T10:55:22.532Z,1.55
2022-11-22T10:58:34.090Z,2.40
2022-11-22T11:03:43.653Z,1.27
2022-11-22T11:06:33.480Z,1.35
2022-11-22T11:12:25.165Z,1.60
2022-11-22T11:15:02.343Z,1.60
2022-11-22T11:17:35.705Z,0.93
2022-11-22T11:20:21.590Z,1.27
2022-11-22T11:23:13.612Z,1.27
2022-11-22T11:25:40.625Z,1.70
2022-11-22T11:28:16.309Z,1.40
2022-11-22T11:31:09.515Z,1.50
2022-11-22T11:33:39.779Z,0.98
2022-11-22T11:36:16.885Z,1.33
2022-11-22T11:38:44.786Z,1.40
2022-11-22T11:41:20.692Z,1.08
2022-11-22T11:43:50.151Z,1.38
2022-11-22T11:46:21.979Z,1.10
2022-11-22T11:48:52.244Z,1.20
2022-11-22T11:51:41.727Z,1.10
2022-11-22T11:54:19.439Z,1.38
2022-11-22T11:56:57.672Z,1.38
2022-11-22T11:59:37.866Z,1.50
2022-11-22T12:02:16.120Z,1.40
2022-11-22T12:04:54.511Z,1.20
2022-11-22T12:07:41.224Z,2.10
2022-11-22T12:10:36.776Z,1.23
2022-11-22T12:13:18.327Z,1.75
2022-11-22T12:16:12.563Z,1.63
2022-11-22T12:18:54.571Z,1.88
2022-11-22T12:22:24.282Z,1.38
2022-11-22T12:25:30.995Z,0.65
2022-11-22T12:27:52.973Z,0.73
2022-11-22T12:30:20.958Z,1.52
2022-11-22T12:33:01.135Z,1.00
2022-11-22T12:35:36.720Z,1.60
2022-11-22T12:38:14.356Z,1.13
2022-11-22T12:40:45.226Z,1.65
2022-11-22T12:43:45.393Z,1.38
2022-11-22T12:46:26.739Z,1.35
2022-11-22T12:49:05.180Z,0.77
2022-11-22T12:51:39.558Z,1.17
2022-11-22T12:54:13.622Z,1.30
2022-11-22T12:56:46.965Z,1.30
2022-11-22T12:59:23.494Z,1.00
2022-11-22T13:02:14.480Z,1.25
2022-11-22T13:04:58.136Z,0.93
2022-11-22T13:08:14.593Z,1.10
2022-11-22T13:10:48.976Z,1.10
2022-11-22T13:13:39.746Z,0.93
2022-11-22T13:16:10.814Z,1.63
2022-11-22T13:18:59.357Z,1.15
2022-11-22T13:21:57.419Z,0.90
2022-11-22T13:25:17.871Z,0.90
2022-11-22T13:28:05.945Z,1.05
2022-11-22T13:30:35.519Z,0.95
2022-11-22T13:33:03.534Z,1.05
2022-11-22T13:35:32.565Z,1.50
2022-11-22T13:38:21.255Z,1.20
2022-11-22T13:40:53.803Z,1.27
2022-11-22T13:43:23.517Z,1.38
2022-11-22T13:45:58.151Z,1.08
2022-11-22T13:48:41.603Z,1.60
2022-11-22T13:51:19.864Z,1.20
2022-11-22T13:53:49.660Z,1.25
2022-11-22T13:56:20.321Z,1.73
2022-11-22T13:59:12.163Z,1.48
2022-11-22T14:01:40.020Z,1.13
2022-11-22T14:04:17.199Z,0.90
2022-11-22T14:07:10.723Z,1.00
2022-11-22T14:09:51.045Z,0.88
2022-11-22T14:12:43.382Z,0.90
2022-11-22T14:15:41.711Z,1.27
2022-11-22T14:18:23.718Z,1.30
2022-11-22T14:21:03.505Z,2.50
2022-11-22T14:23:49.726Z,1.52
2022-11-22T14:26:41.667Z,0.95
2022-11-22T14:29:53.496Z,1.30
2022-11-22T14:32:26.467Z,1.02
2022-11-22T14:35:06.663Z,1.20
2022-11-22T14:37:42.826Z,1.30
2022-11-22T14:40:47.930Z,0.90
2022-11-22T14:43:37.855Z,1.33
2022-11-22T14:46:45.426Z,1.42
2022-11-22T14:49:30.262Z,1.20
2022-11-22T14:51:59.596Z,1.52
2022-11-22T14:54:47.868Z,1.42
2022-11-22T14:57:25.269Z,1.00
2022-11-22T14:59:56.278Z,1.10
2022-11-22T15:02:42.610Z,1.48
2022-11-22T15:09:11.675Z,1.48
2022-11-22T15:09:21.285Z,1.35
2022-11-22T15:12:02.301Z,1.08
2022-11-22T15:57:31.715Z,2.67
2022-11-22T15:59:59.880Z,1.70
2022-11-22T16:02:30.296Z,2.42
2022-11-22T16:06:08.977Z,3.38
2022-11-22T16:07:57.668Z,2.90
2022-11-22T16:10:42.367Z,2.78
2022-11-22T16:13:19.524Z,2.15
2022-11-22T16:16:13.430Z,1.83
2022-11-22T16:18:42.942Z,1.85
2022-11-22T16:21:11.275Z,2.20
2022-11-22T16:23:45.039Z,2.10
2022-11-22T16:26:22.195Z,1.77
2022-11-22T16:28:53.087Z,1.40
2022-11-22T16:31:31.235Z,1.48
2022-11-22T16:33:59.675Z,1.73
2022-11-22T16:36:30.081Z,1.92
2022-11-22T16:38:58.534Z,1.98
2022-11-22T16:41:28.984Z,4.28
2022-11-22T16:44:06.305Z,2.40
2022-11-22T16:46:34.292Z,3.00
2022-11-22T16:49:02.245Z,2.20
2022-11-22T16:51:30.294Z,2.63
2022-11-22T16:54:06.186Z,6.65
2022-11-22T16:56:34.313Z,9.45
2022-11-22T16:59:02.219Z,5.82
2022-11-22T17:01:33.186Z,6.03
2022-11-22T17:04:02.781Z,4.97
2022-11-22T17:06:31.561Z,4.82
2022-11-22T17:09:00.348Z,5.15
2022-11-22T17:11:30.944Z,9.23
2022-11-22T17:14:00.120Z,8.45
2022-11-22T17:16:28.252Z,7.35
2022-11-22T17:18:56.218Z,6.53
2022-11-22T17:21:37.467Z,4.35
2022-11-22T17:24:15.748Z,3.42
2022-11-22T17:26:43.822Z,3.08
2022-11-22T17:29:28.952Z,2.70
2022-11-22T17:31:59.737Z,1.95
2022-11-22T17:34:29.969Z,2.00
2022-11-22T17:37:00.036Z,2.63
2022-11-22T17:39:28.135Z,2.33
2022-11-22T17:41:56.251Z,2.67
2022-11-22T17:44:24.228Z,2.85
2022-11-22T17:46:52.142Z,2.22
2022-11-22T17:49:21.085Z,1.58
2022-11-22T17:51:48.948Z,1.48
2022-11-22T17:54:16.874Z,2.40
2022-11-22T17:56:44.788Z,1.70
2022-11-22T17:59:15.245Z,1.70
2022-11-22T18:01:43.400Z,2.03
2022-11-22T18:04:14.525Z,2.00
2022-11-22T18:06:42.427Z,1.77
2022-11-22T18:09:10.361Z,2.25
2022-11-22T18:11:38.208Z,1.90
2022-11-22T18:14:06.579Z,2.30
2022-11-22T18:16:34.491Z,4.43
2022-11-22T18:19:02.432Z,4.10
2022-11-22T18:21:34.581Z,3.05
2022-11-22T18:24:02.669Z,3.70
2022-11-22T18:26:39.467Z,2.83
2022-11-22T18:29:38.938Z,2.83
2022-11-22T18:31:56.847Z,2.08
2022-11-22T18:34:26.016Z,2.30
2022-11-22T18:37:00.692Z,2.70
2022-11-22T18:39:35.820Z,1.42
2022-11-22T18:42:12.524Z,1.67
2022-11-22T18:44:40.749Z,2.22
2022-11-22T18:47:08.728Z,1.55
2022-11-22T18:49:36.927Z,1.45
2022-11-22T18:52:05.421Z,1.60
2022-11-22T18:54:33.801Z,1.58
2022-11-22T18:57:01.971Z,1.83
2022-11-22T18:59:29.945Z,1.25
2022-11-22T19:01:57.792Z,1.20
2022-11-22T19:04:25.700Z,1.45
2022-11-22T19:06:55.366Z,1.98
2022-11-22T19:09:23.379Z,2.05
2022-11-22T19:11:58.244Z,2.67
2022-11-22T19:14:30.761Z,2.72
2022-11-22T19:16:59.012Z,2.00
2022-11-22T19:19:27.627Z,2.42
2022-11-22T19:21:55.458Z,2.53
2022-11-22T19:24:23.286Z,2.15
2022-11-22T19:26:51.334Z,1.90
2022-11-22T19:29:19.386Z,1.90
2022-11-22T19:31:47.271Z,1.42
2022-11-22T19:34:15.210Z,1.50
2022-11-22T19:36:43.805Z,1.67
2022-11-22T19:39:13.879Z,1.63
2022-11-22T19:41:44.938Z,1.60
2022-11-22T19:44:12.904Z,1.30
2022-11-22T19:46:41.541Z,1.98
2022-11-22T19:49:10.178Z,2.50
2022-11-22T19:51:38.944Z,2.67
2022-11-22T19:54:07.154Z,2.40
2022-11-22T19:56:37.899Z,1.60
2022-11-22T19:59:07.950Z,1.60
2022-11-22T20:01:36.342Z,1.73
2022-11-22T20:04:06.057Z,2.60
2022-11-22T20:06:36.568Z,2.00
2022-11-22T20:09:07.802Z,1.60
2022-11-22T20:11:35.823Z,1.63
2022-11-22T20:14:04.002Z,1.60
2022-11-22T20:16:35.903Z,1.83
2022-11-22T20:19:06.788Z,1.95
2022-11-22T20:21:35.962Z,1.40
2022-11-22T20:24:05.439Z,1.88
2022-11-22T20:26:33.808Z,1.52
2022-11-22T20:29:06.448Z,1.70
2022-11-22T20:31:36.992Z,1.50
2022-11-22T20:34:05.155Z,1.45
2022-11-22T20:36:35.005Z,1.35
2022-11-22T20:39:09.565Z,1.65
2022-11-22T20:41:38.997Z,1.42
2022-11-22T20:44:08.922Z,1.40
2022-11-22T20:46:37.706Z,1.42
2022-11-22T20:49:05.986Z,1.33
2022-11-22T20:51:39.419Z,1.70
2022-11-22T20:54:08.525Z,1.85
2022-11-22T20:56:37.823Z,1.30
2022-11-22T20:59:06.145Z,1.63
2022-11-22T21:01:34.194Z,1.45
2022-11-22T21:04:02.202Z,1.60
2022-11-22T21:06:32.519Z,1.55
2022-11-22T21:09:00.414Z,1.43
2022-11-22T21:11:31.025Z,1.33
2022-11-22T21:13:59.374Z,1.25
2022-11-22T21:16:29.592Z,1.55
2022-11-22T21:19:04.776Z,1.33
2022-11-22T21:21:34.791Z,1.60
2022-11-22T21:24:04.616Z,1.88
2022-11-22T21:26:33.115Z,1.77
2022-11-22T21:29:03.170Z,1.50
2022-11-22T21:31:31.163Z,1.23
2022-11-22T21:33:59.044Z,1.40
2022-11-22T21:36:26.948Z,1.23
2022-11-22T21:38:54.841Z,1.73
2022-11-22T21:41:40.163Z,1.60
2022-11-22T21:44:09.438Z,1.50
2022-11-22T21:46:37.479Z,1.52
2022-11-22T21:49:05.643Z,1.15
2022-11-22T21:51:33.534Z,1.83
2022-11-22T21:54:03.105Z,1.85
2022-11-22T21:56:31.613Z,1.50
2022-11-22T21:58:59.910Z,1.83
2022-11-22T22:01:27.947Z,1.42
2022-11-22T22:03:55.966Z,1.50
2022-11-22T22:06:25.016Z,1.63
2022-11-22T22:08:52.982Z,1.50
2022-11-22T22:11:21.273Z,1.55
2022-11-22T22:13:49.286Z,1.73
2022-11-22T22:16:19.375Z,1.48
2022-11-22T22:18:47.517Z,1.70
2022-11-22T22:21:16.503Z,1.70
2022-11-22T22:23:45.385Z,1.67
2022-11-22T22:26:15.815Z,1.52
2022-11-22T22:28:45.035Z,1.50
2022-11-22T22:31:22.152Z,1.27
2022-11-22T22:33:57.604Z,1.33
2022-11-22T22:36:27.106Z,1.38
2022-11-22T22:38:55.275Z,1.40
2022-11-22T22:41:23.457Z,1.55
2022-11-22T22:43:51.338Z,1.65
2022-11-22T22:46:24.954Z,1.50
2022-11-22T22:48:54.913Z,1.55
2022-11-22T22:51:33.214Z,1.90
2022-11-22T22:54:02.078Z,1.75
2022-11-22T22:56:30.833Z,1.55
2022-11-22T22:59:00.627Z,1.42
2022-11-22T23:01:30.598Z,1.20
2022-11-22T23:04:00.758Z,1.48
2022-11-22T23:06:39.618Z,1.40
2022-11-22T23:09:09.755Z,1.50
2022-11-22T23:11:56.739Z,1.67
2022-11-22T23:14:30.094Z,1.30
2022-11-22T23:16:58.568Z,1.70
2022-11-22T23:19:27.687Z,1.33
2022-11-22T23:21:55.946Z,1.30
2022-11-22T23:24:23.816Z,1.30
2022-11-22T23:26:51.697Z,1.30
2022-11-22T23:29:19.522Z,1.52
2022-11-22T23:31:47.346Z,1.45
2022-11-22T23:34:15.262Z,1.50
2022-11-22T23:36:43.152Z,1.40
2022-11-22T23:39:11.578Z,1.70
2022-11-22T23:41:39.507Z,1.40
2022-11-22T23:44:07.652Z,2.00
2022-11-22T23:46:35.574Z,1.40
2022-11-22T23:49:04.486Z,1.45
2022-11-22T23:51:33.296Z,1.10
2022-11-22T23:54:03.950Z,1.23
2022-11-22T23:56:33.636Z,1.40
2022-11-22T23:59:02.581Z,1.67
